Time;durP1;ratioP1;P1;durP2;ratioP2;P2;SDS_P1;SDS_P2;PMS_P1;PMS_P2;Temp;Humidity;BMP_temperature;BMP_pressure;BME280_temperature;BME280_humidity;BME280_pressure;Samples;Min_cycle;Max_cycle;Signal;HPM_P1;HPM_P2
2020/12/06 00:02:03;;;;;;;26.40;14.55;;;;;;;7.29;72.72;99835.53;5071419;28;20048;-69
2020/12/06 00:04:29;;;;;;;35.28;20.25;;;;;;;7.29;72.74;99824.25;5071338;28;20079;-69
2020/12/06 00:06:56;;;;;;;31.73;19.63;;;;;;;7.26;72.69;99834.75;5071608;28;20040;-70
2020/12/06 00:09:23;;;;;;;36.08;20.05;;;;;;;7.25;72.68;99840.84;5071453;28;20106;-70
2020/12/06 00:11:49;;;;;;;28.27;16.60;;;;;;;7.23;72.65;99829.63;5071410;28;20040;-70
2020/12/06 00:14:15;;;;;;;31.00;17.85;;;;;;;7.22;72.99;99831.38;5071286;28;20511;-68
2020/12/06 00:16:41;;;;;;;34.05;19.33;;;;;;;7.21;73.05;99823.59;5071141;28;20488;-69
2020/12/06 00:19:08;;;;;;;38.72;20.15;;;;;;;7.18;72.84;99821.09;5070988;28;20107;-70
2020/12/06 00:21:35;;;;;;;32.63;18.80;;;;;;;7.15;73.03;99822.06;5071264;28;20076;-69
2020/12/06 00:24:04;;;;;;;29.40;14.32;;;;;;;7.15;73.12;99816.00;5071541;28;20578;-69
2020/12/06 00:26:30;;;;;;;32.72;17.92;;;;;;;7.13;73.23;99807.38;5071065;28;20145;-69
2020/12/06 00:28:56;;;;;;;22.23;11.45;;;;;;;7.12;73.13;99826.53;5070903;28;20115;-68
2020/12/06 00:31:23;;;;;;;46.90;24.00;;;;;;;7.12;73.19;99824.75;5071283;28;20433;-69
2020/12/06 00:33:49;;;;;;;26.95;15.10;;;;;;;7.12;73.31;99818.69;5071174;28;20488;-69
2020/12/06 00:36:16;;;;;;;38.45;18.70;;;;;;;7.11;73.20;99814.38;5070711;28;20087;-69
2020/12/06 00:38:44;;;;;;;42.95;21.55;;;;;;;7.12;73.26;99816.09;5071161;28;20496;-68
2020/12/06 00:41:11;;;;;;;37.83;19.48;;;;;;;7.13;72.98;99817.78;5071239;28;20097;-68
2020/12/06 00:43:37;;;;;;;33.20;17.70;;;;;;;7.12;73.23;99819.56;5071050;28;20361;-69
2020/12/06 00:46:03;;;;;;;36.90;20.33;;;;;;;7.14;73.41;99822.09;5071259;28;20080;-70
2020/12/06 00:48:29;;;;;;;23.00;13.77;;;;;;;7.15;73.13;99824.66;5071206;28;20083;-69
2020/12/06 00:50:55;;;;;;;33.45;18.90;;;;;;;7.15;72.97;99835.09;5070599;28;20111;-69
2020/12/06 00:53:22;;;;;;;38.47;18.88;;;;;;;7.15;73.27;99822.06;5071156;28;20111;-69
2020/12/06 00:55:48;;;;;;;36.55;20.90;;;;;;;7.15;73.12;99827.28;5071042;28;20141;-69
2020/12/06 00:58:14;;;;;;;38.35;20.70;;;;;;;7.15;73.19;99816.00;5070784;28;20102;-69
2020/12/06 01:00:41;;;;;;;29.30;17.42;;;;;;;7.15;73.23;99823.81;5069942;28;20080;-71
2020/12/06 01:03:07;;;;;;;33.47;18.45;;;;;;;7.14;73.20;99824.72;5074776;28;20048;-68
2020/12/06 01:05:33;;;;;;;37.30;20.70;;;;;;;7.14;73.22;99828.16;5074299;28;20075;-69
2020/12/06 01:08:00;;;;;;;34.67;16.15;;;;;;;7.14;73.14;99815.13;5074335;28;20475;-69
2020/12/06 01:10:27;;;;;;;37.78;21.25;;;;;;;7.14;73.37;99814.28;5074148;28;20099;-69
2020/12/06 01:12:53;;;;;;;28.77;16.58;;;;;;;7.15;73.30;99821.19;5074525;28;20074;-69
2020/12/06 01:15:19;;;;;;;34.08;18.67;;;;;;;7.15;73.19;99811.63;5074085;28;20519;-69
2020/12/06 01:17:46;;;;;;;29.73;16.65;;;;;;;7.16;73.27;99822.91;5074572;28;20080;-68
2020/12/06 01:20:12;;;;;;;35.25;19.75;;;;;;;7.16;73.39;99828.97;5074075;28;20113;-69
2020/12/06 01:22:38;;;;;;;32.35;17.95;;;;;;;7.18;73.59;99826.31;5074096;28;20123;-69
2020/12/06 01:25:06;;;;;;;40.42;20.75;;;;;;;7.18;73.18;99839.34;5074205;28;20040;-68
2020/12/06 01:27:33;;;;;;;37.00;20.80;;;;;;;7.19;73.38;99834.09;5073997;28;20098;-70
2020/12/06 01:29:59;;;;;;;20.75;10.55;;;;;;;7.21;73.11;99832.28;5073667;28;20033;-68
2020/12/06 01:32:25;;;;;;;42.33;20.45;;;;;;;7.22;73.22;99834.00;5073821;28;20140;-70
2020/12/06 01:34:51;;;;;;;34.63;19.98;;;;;;;7.22;73.21;99820.09;5073813;28;20520;-70
2020/12/06 01:37:17;;;;;;;34.75;19.23;;;;;;;7.22;73.10;99822.72;5073957;28;20087;-70
2020/12/06 01:39:43;;;;;;;35.95;18.00;;;;;;;7.21;73.20;99821.00;5073667;28;20049;-69
2020/12/06 01:42:10;;;;;;;28.98;15.27;;;;;;;7.22;73.11;99833.13;5073560;28;20080;-69
2020/12/06 01:44:37;;;;;;;35.08;18.95;;;;;;;7.21;73.25;99826.22;5073652;28;20096;-70
2020/12/06 01:47:03;;;;;;;30.75;17.95;;;;;;;7.25;73.19;99822.59;5073636;28;20546;-69
2020/12/06 01:49:35;;;;;;;36.00;21.50;;;;;;;7.24;73.18;99831.34;5073087;28;20551;-70
2020/12/06 01:52:02;;;;;;;38.63;19.90;;;;;;;7.27;73.16;99823.41;5073537;28;20087;-69
2020/12/06 01:54:28;;;;;;;31.05;17.58;;;;;;;7.28;73.02;99830.31;5073114;28;20076;-70
2020/12/06 01:56:54;;;;;;;42.92;21.48;;;;;;;7.28;73.17;99827.72;5073378;28;20088;-69
2020/12/06 01:59:21;;;;;;;36.03;20.35;;;;;;;7.30;73.04;99836.38;5073364;28;20080;-69
2020/12/06 02:01:55;;;;;;;37.13;19.85;;;;;;;7.29;73.29;99829.47;5073107;28;20102;-69
2020/12/06 02:04:23;;;;;;;34.22;19.45;;;;;;;7.30;72.95;99836.38;5073511;28;20477;-69
2020/12/06 02:06:49;;;;;;;30.55;18.13;;;;;;;7.32;73.12;99834.56;5073200;28;20134;-69
2020/12/06 02:09:16;;;;;;;26.73;14.32;;;;;;;7.31;73.04;99832.88;5073064;28;20480;-68
2020/12/06 02:11:42;;;;;;;31.40;15.73;;;;;;;7.31;73.25;99828.50;5072995;28;20084;-68
2020/12/06 02:14:10;;;;;;;32.90;18.77;;;;;;;7.30;73.37;99826.81;5073328;28;20083;-69
2020/12/06 02:16:36;;;;;;;38.65;19.67;;;;;;;7.31;73.16;99820.69;5072579;28;20048;-69
2020/12/06 02:19:05;;;;;;;33.85;18.13;;;;;;;7.31;73.14;99822.44;5073072;28;20083;-69
2020/12/06 02:21:32;;;;;;;24.75;14.05;;;;;;;7.32;73.05;99821.53;5072671;28;20086;-69
2020/12/06 02:23:58;;;;;;;32.42;19.38;;;;;;;7.34;73.18;99817.13;5072911;28;20127;-69
2020/12/06 02:26:24;;;;;;;31.80;17.55;;;;;;;7.34;73.04;99817.13;5072984;28;20044;-69
2020/12/06 02:28:51;;;;;;;26.98;14.07;;;;;;;7.32;73.09;99818.94;5072645;28;20102;-69
2020/12/06 02:31:17;;;;;;;31.80;19.95;;;;;;;7.30;73.17;99813.75;5072766;28;20076;-70
2020/12/06 02:33:43;;;;;;;38.08;18.90;;;;;;;7.29;73.14;99809.44;5072890;28;20084;-70
2020/12/06 02:36:09;;;;;;;23.25;12.13;;;;;;;7.30;73.14;99810.31;5072530;28;20052;-68
2020/12/06 02:38:36;;;;;;;26.02;15.65;;;;;;;7.30;73.17;99836.38;5072918;28;20124;-70
2020/12/06 02:41:02;;;;;;;28.27;16.42;;;;;;;7.29;73.21;99829.47;5072674;28;20053;-70
2020/12/06 02:43:28;;;;;;;29.08;15.32;;;;;;;7.28;73.23;99823.34;5072595;28;20504;-70
2020/12/06 02:45:54;;;;;;;24.10;13.32;;;;;;;7.29;73.27;99819.88;5072380;28;20079;-69
2020/12/06 02:48:20;;;;;;;37.88;17.70;;;;;;;7.28;73.35;99833.78;5072529;28;20075;-69
2020/12/06 02:50:46;;;;;;;25.88;13.70;;;;;;;7.29;73.13;99837.28;5072189;28;20083;-69
2020/12/06 02:53:13;;;;;;;18.65;10.45;;;;;;;7.27;73.29;99831.22;5072338;28;20516;-69
2020/12/06 02:55:40;;;;;;;37.17;19.60;;;;;;;7.26;73.17;99839.94;5072175;28;20529;-69
2020/12/06 02:58:06;;;;;;;26.13;13.60;;;;;;;7.26;73.15;99834.75;5072396;28;20326;-69
2020/12/06 03:00:32;;;;;;;26.02;14.40;;;;;;;7.25;73.28;99833.03;5072239;28;20151;-70
2020/12/06 03:02:58;;;;;;;33.50;17.45;;;;;;;7.26;73.32;99830.38;5072105;28;20429;-68
2020/12/06 03:05:24;;;;;;;21.80;14.00;;;;;;;7.28;73.09;99840.75;5072054;28;20131;-69
2020/12/06 03:07:50;;;;;;;37.15;18.83;;;;;;;7.28;73.01;99838.16;5072458;28;20072;-69
2020/12/06 03:10:16;;;;;;;32.35;16.95;;;;;;;7.28;73.06;99830.31;5071789;28;20127;-69
2020/12/06 03:12:43;;;;;;;32.58;19.40;;;;;;;7.28;73.09;99827.72;5072115;28;20052;-68
2020/12/06 03:15:09;;;;;;;23.35;13.95;;;;;;;7.29;72.98;99832.06;5071739;28;20109;-70
2020/12/06 03:17:36;;;;;;;34.60;17.58;;;;;;;7.25;73.05;99833.88;5072327;28;20048;-68
2020/12/06 03:20:02;;;;;;;31.95;16.52;;;;;;;7.25;73.13;99826.06;5071588;28;20535;-69
2020/12/06 03:22:32;;;;;;;34.08;18.95;;;;;;;7.26;73.10;99824.31;5072031;28;20127;-70
2020/12/06 03:24:59;;;;;;;32.95;16.83;;;;;;;7.27;73.06;99828.63;5071313;28;20041;-69
2020/12/06 03:27:26;;;;;;;21.20;11.95;;;;;;;7.24;73.04;99839.16;5072109;28;20054;-69
2020/12/06 03:29:54;;;;;;;30.08;17.20;;;;;;;7.25;73.05;99828.69;5071716;28;20050;-69
2020/12/06 03:32:20;;;;;;;30.05;16.92;;;;;;;7.26;73.09;99834.75;5071751;28;20040;-69
2020/12/06 03:34:46;;;;;;;29.05;17.77;;;;;;;7.27;73.00;99828.63;5071562;28;20114;-69
2020/12/06 03:37:12;;;;;;;33.63;18.77;;;;;;;7.26;73.11;99826.91;5071807;28;20059;-70
2020/12/06 03:39:38;;;;;;;30.83;15.43;;;;;;;7.26;73.17;99832.97;5071890;28;20436;-69
2020/12/06 03:42:04;;;;;;;22.33;12.15;;;;;;;7.27;73.08;99836.44;5071989;28;20083;-69
2020/12/06 03:44:30;;;;;;;27.63;15.80;;;;;;;7.28;72.94;99843.38;5071579;28;20577;-69
2020/12/06 03:46:57;;;;;;;30.45;17.25;;;;;;;7.30;73.19;99842.44;5071887;28;20080;-69
2020/12/06 03:49:24;;;;;;;30.75;15.23;;;;;;;7.30;73.21;99836.38;5071868;28;20084;-68
2020/12/06 03:51:50;;;;;;;21.20;13.30;;;;;;;7.32;73.07;99832.81;5071171;28;20119;-69
2020/12/06 03:54:16;;;;;;;21.48;11.50;;;;;;;7.32;72.99;99847.59;5071806;28;20080;-69
2020/12/06 03:56:42;;;;;;;32.85;18.02;;;;;;;7.33;73.12;99837.13;5071455;28;20105;-69
2020/12/06 03:59:08;;;;;;;24.33;13.73;;;;;;;7.34;72.97;99837.97;5071152;28;20096;-68
2020/12/06 04:01:34;;;;;;;32.15;16.45;;;;;;;7.34;72.93;99833.63;5071338;28;20080;-69
2020/12/06 04:04:01;;;;;;;28.27;14.82;;;;;;;7.34;72.97;99837.97;5071623;28;20139;-70
2020/12/06 04:06:27;;;;;;;33.13;16.73;;;;;;;7.34;72.82;99843.19;5071365;28;20072;-69
2020/12/06 04:08:54;;;;;;;25.98;13.15;;;;;;;7.32;73.00;99840.63;5071676;28;20128;-70
2020/12/06 04:11:20;;;;;;;29.65;15.77;;;;;;;7.32;72.97;99826.75;5070644;28;20145;-69
2020/12/06 04:13:47;;;;;;;31.05;16.60;;;;;;;7.31;72.97;99848.50;5071247;28;20071;-68
2020/12/06 04:16:13;;;;;;;29.85;15.43;;;;;;;7.33;72.94;99841.50;5071032;28;20091;-70
2020/12/06 04:18:39;;;;;;;31.05;17.65;;;;;;;7.33;72.97;99836.28;5070904;28;20534;-69
2020/12/06 04:21:09;;;;;;;30.30;16.20;;;;;;;7.32;73.03;99848.47;5071453;28;20127;-69
2020/12/06 04:23:36;;;;;;;29.05;16.88;;;;;;;7.32;72.94;99858.03;5071300;28;20404;-69
2020/12/06 04:26:02;;;;;;;25.42;13.85;;;;;;;7.32;72.87;99845.00;5070776;28;20095;-68
2020/12/06 04:28:28;;;;;;;36.90;19.70;;;;;;;7.33;73.08;99862.34;5071198;28;20084;-69
2020/12/06 04:30:54;;;;;;;28.50;16.45;;;;;;;7.33;73.08;99855.38;5071463;28;20076;-69
2020/12/06 04:33:20;;;;;;;33.65;15.93;;;;;;;7.34;72.90;99853.63;5071617;28;20075;-68
2020/12/06 04:35:46;;;;;;;37.97;17.52;;;;;;;7.31;72.85;99858.94;5072166;28;20088;-68
2020/12/06 04:38:13;;;;;;;30.60;17.13;;;;;;;7.33;72.82;99849.31;5075360;28;20079;-70
2020/12/06 04:40:40;;;;;;;26.55;14.80;;;;;;;7.34;72.89;99854.47;5074872;28;20465;-69
2020/12/06 04:43:06;;;;;;;30.23;16.85;;;;;;;7.36;72.85;99846.59;5075587;28;20110;-69
2020/12/06 04:45:33;;;;;;;34.88;17.35;;;;;;;7.36;72.74;99862.25;5074504;28;20133;-69
2020/12/06 04:48:04;;;;;;;28.80;15.90;;;;;;;7.36;72.66;99867.47;5074844;28;20052;-69
2020/12/06 04:50:32;;;;;;;;;;;;;;;7.42;72.47;99869.03;5075124;28;20485;-69
2020/12/06 04:53:00;;;;;;;21.85;11.55;;;;;;;7.32;72.77;99865.88;5076692;28;19987;-69
2020/12/06 04:55:29;;;;;;;21.23;13.25;;;;;;;7.31;72.67;99865.00;5074680;28;20595;-69
2020/12/06 04:57:57;;;;;;;26.17;15.63;;;;;;;7.33;72.88;99867.56;5074557;28;20100;-69
2020/12/06 05:00:33;;;;;;;25.75;13.02;;;;;;;7.32;72.74;99877.13;5074524;28;20102;-68
2020/12/06 05:03:06;;;;;;;25.33;14.20;;;;;;;7.35;72.48;99870.97;5074821;28;20415;-70
2020/12/06 05:05:35;;;;;;;22.48;13.50;;;;;;;7.35;72.71;99878.81;5074703;28;20080;-69
2020/12/06 05:08:07;;;;;;;28.42;14.52;;;;;;;7.35;72.72;99881.41;5074824;28;20076;-68
2020/12/06 05:10:39;;;;;;;28.80;16.60;;;;;;;7.37;72.63;99881.34;5074453;28;20152;-71
2020/12/06 05:13:06;;;;;;;37.45;18.45;;;;;;;7.38;72.62;99881.31;5074565;28;20048;-70
2020/12/06 05:15:32;;;;;;;31.08;16.48;;;;;;;7.40;72.83;99889.06;5074440;28;20143;-70
2020/12/06 05:17:59;;;;;;;28.85;15.25;;;;;;;7.42;72.52;99890.72;5074243;28;20091;-69
2020/12/06 05:20:26;;;;;;;35.33;16.80;;;;;;;7.40;72.56;99902.97;5074153;28;20106;-69
2020/12/06 05:22:53;;;;;;;36.88;19.42;;;;;;;7.40;72.42;99889.06;5074571;28;20084;-70
2020/12/06 05:25:19;;;;;;;32.55;17.08;;;;;;;7.41;72.51;99896.84;5073946;28;20052;-68
2020/12/06 05:27:46;;;;;;;22.60;13.25;;;;;;;7.42;72.57;99890.72;5074108;28;20071;-69
2020/12/06 05:30:13;;;;;;;35.80;18.50;;;;;;;7.43;72.34;99897.66;5073891;28;20080;-69
2020/12/06 05:32:39;;;;;;;27.95;13.88;;;;;;;7.44;72.29;99895.91;5074394;28;20087;-68
2020/12/06 05:35:07;;;;;;;32.88;16.63;;;;;;;7.43;72.27;99904.63;5074008;28;20044;-69
2020/12/06 05:37:35;;;;;;;36.78;17.15;;;;;;;7.44;72.31;99896.75;5074237;28;20122;-68
2020/12/06 05:40:03;;;;;;;33.85;17.27;;;;;;;7.45;72.22;99910.66;5073947;28;20098;-68
2020/12/06 05:42:31;;;;;;;27.10;12.80;;;;;;;7.45;72.12;99906.28;5073796;28;20068;-68
2020/12/06 05:44:58;;;;;;;36.58;19.50;;;;;;;7.44;72.15;99894.16;5073640;28;20072;-69
2020/12/06 05:47:24;;;;;;;21.42;12.82;;;;;;;7.45;72.29;99895.84;5073533;28;20084;-70
2020/12/06 05:49:51;;;;;;;33.60;19.60;;;;;;;7.47;72.06;99908.84;5073539;28;20074;-69
2020/12/06 05:52:18;;;;;;;27.98;14.15;;;;;;;7.46;72.16;99900.16;5073224;28;20127;-70
2020/12/06 05:54:44;;;;;;;29.90;15.27;;;;;;;7.45;72.12;99898.47;5073390;28;20488;-69
2020/12/06 05:57:12;;;;;;;30.70;15.55;;;;;;;7.45;72.14;99906.28;5073713;28;20129;-69
2020/12/06 05:59:38;;;;;;;28.85;16.85;;;;;;;7.46;71.96;99894.94;5073397;28;20086;-69
2020/12/06 06:02:06;;;;;;;24.20;14.05;;;;;;;7.43;72.15;99883.75;5073753;28;20075;-69
2020/12/06 06:04:37;;;;;;;24.83;14.60;;;;;;;7.41;72.23;99896.84;5073311;28;20084;-69
2020/12/06 06:07:05;;;;;;;37.25;18.40;;;;;;;7.42;71.94;99895.09;5073665;28;20080;-70
2020/12/06 06:09:37;;;;;;;34.17;17.90;;;;;;;7.44;71.95;99895.91;5073353;28;20087;-70
2020/12/06 06:12:32;;;;;;;26.00;15.02;;;;;;;7.41;72.07;99907.28;5072881;28;20068;-70
2020/12/06 06:15:01;;;;;;;22.42;11.50;;;;;;;7.42;71.97;99908.13;5070516;28;20106;-70
2020/12/06 06:17:30;;;;;;;19.08;10.90;;;;;;;7.40;72.05;99910.78;5073005;28;20215;-70
2020/12/06 06:19:56;;;;;;;31.42;16.35;;;;;;;7.43;71.93;99930.72;5073033;28;20480;-70
2020/12/06 06:22:28;;;;;;;28.92;15.88;;;;;;;7.43;71.91;99915.91;5073538;28;20080;-70
2020/12/06 06:24:56;;;;;;;24.40;11.85;;;;;;;7.44;71.91;99924.59;5072777;28;20041;-70
2020/12/06 06:27:22;;;;;;;28.33;15.75;;;;;;;7.43;71.92;99934.16;5073124;28;20059;-70
2020/12/06 06:29:49;;;;;;;31.27;17.20;;;;;;;7.42;71.80;99913.34;5073007;28;20461;-69
2020/12/06 06:32:18;;;;;;;29.15;14.10;;;;;;;7.43;71.77;99910.69;5072705;28;20040;-68
2020/12/06 06:34:46;;;;;;;35.85;17.50;;;;;;;7.42;71.76;99911.59;5072616;28;20506;-68
2020/12/06 06:37:14;;;;;;;20.13;9.93;;;;;;;7.44;71.69;99917.63;5072658;28;20088;-70
2020/12/06 06:39:40;;;;;;;26.42;14.80;;;;;;;7.44;71.74;99917.63;5073059;28;20048;-68
2020/12/06 06:42:10;;;;;;;22.63;11.63;;;;;;;7.46;71.69;99925.38;5072995;28;20055;-69
2020/12/06 06:44:37;;;;;;;27.90;15.55;;;;;;;7.43;71.55;99934.16;5072749;28;20064;-69
2020/12/06 06:47:05;;;;;;;18.90;11.00;;;;;;;7.42;71.67;99919.41;5072596;28;20079;-69
2020/12/06 06:49:34;;;;;;;32.97;17.27;;;;;;;7.44;71.60;99930.66;5072428;28;20056;-69
2020/12/06 06:52:03;;;;;;;28.83;14.15;;;;;;;7.45;71.46;99926.28;5072760;28;20048;-69
2020/12/06 06:54:31;;;;;;;28.15;16.90;;;;;;;7.46;71.46;99925.38;5072344;28;20079;-70
2020/12/06 06:56:58;;;;;;;28.05;16.00;;;;;;;7.47;71.52;99922.72;5072442;28;20076;-69
2020/12/06 06:59:44;;;;;;;31.75;18.30;;;;;;;7.48;71.58;99936.63;5071623;28;20476;-70
2020/12/06 07:02:20;;;;;;;24.27;13.02;;;;;;;7.45;71.36;99926.28;5072528;28;20553;-69
2020/12/06 07:04:47;;;;;;;32.97;18.33;;;;;;;7.46;71.35;99914.97;5072355;28;20045;-70
2020/12/06 07:07:15;;;;;;;31.55;15.82;;;;;;;7.49;71.35;99920.94;5072396;28;20052;-69
2020/12/06 07:09:42;;;;;;;30.77;15.13;;;;;;;7.49;71.33;99926.16;5072197;28;20105;-69
2020/12/06 07:12:09;;;;;;;30.05;17.90;;;;;;;7.49;71.21;99925.28;5072039;28;20072;-70
2020/12/06 07:14:35;;;;;;;26.30;13.48;;;;;;;7.49;71.31;99933.13;5071722;28;20557;-70
2020/12/06 07:17:02;;;;;;;34.17;18.80;;;;;;;7.49;71.30;99926.16;5071779;28;20508;-71
2020/12/06 07:19:28;;;;;;;24.38;12.35;;;;;;;7.49;71.13;99935.72;5071804;28;20068;-70
2020/12/06 07:21:54;;;;;;;26.52;14.90;;;;;;;7.54;71.23;99939.94;5072141;28;20083;-69
2020/12/06 07:24:21;;;;;;;22.17;13.20;;;;;;;7.54;71.00;99941.69;5072035;28;20083;-70
2020/12/06 07:26:48;;;;;;;30.58;17.00;;;;;;;7.53;70.93;99934.75;5071851;28;20546;-70
2020/12/06 07:29:14;;;;;;;15.05;9.52;;;;;;;7.52;71.16;99943.47;5071858;28;20102;-70
2020/12/06 07:31:40;;;;;;;32.78;13.95;;;;;;;7.52;71.00;99941.72;5071931;28;20083;-69
2020/12/06 07:34:07;;;;;;;28.90;18.02;;;;;;;7.51;70.89;99955.69;5071962;28;20099;-70
2020/12/06 07:36:34;;;;;;;25.77;15.45;;;;;;;7.53;70.96;99948.66;5071365;28;20086;-69
2020/12/06 07:39:00;;;;;;;28.67;16.80;;;;;;;7.53;70.66;99943.44;5071842;28;20508;-69
2020/12/06 07:41:27;;;;;;;25.15;13.63;;;;;;;7.54;70.98;99960.78;5072012;28;20083;-69
2020/12/06 07:43:54;;;;;;;25.27;14.60;;;;;;;7.52;70.82;99949.56;5071966;28;20072;-70
2020/12/06 07:46:21;;;;;;;22.50;12.70;;;;;;;7.49;70.83;99960.06;5071128;28;20080;-69
2020/12/06 07:48:48;;;;;;;27.38;14.88;;;;;;;7.50;70.87;99955.72;5071351;28;20476;-70
2020/12/06 07:51:23;;;;;;;25.83;14.63;;;;;;;7.50;70.70;99945.28;5071610;28;20075;-70
2020/12/06 07:53:51;;;;;;;31.38;16.58;;;;;;;7.48;70.72;99937.47;5071684;28;20120;-69
2020/12/06 07:56:22;;;;;;;30.13;15.30;;;;;;;7.44;70.76;99954.13;5071360;28;20546;-69
2020/12/06 07:58:54;;;;;;;;;;;;;;;7.48;70.56;99947.91;5071765;28;20041;-70
2020/12/06 08:01:21;;;;;;;25.92;13.93;;;;;;;7.35;70.77;99949.22;5071019;28;19928;-69
2020/12/06 08:03:52;;;;;;;25.92;15.05;;;;;;;7.31;70.93;99952.81;5071664;28;20082;-69
2020/12/06 08:06:20;;;;;;;30.40;17.63;;;;;;;7.29;70.82;99949.41;5071576;28;20572;-70
2020/12/06 08:08:49;;;;;;;29.23;14.70;;;;;;;7.29;70.80;99952.84;5071680;28;20084;-70
2020/12/06 08:11:17;;;;;;;18.75;10.93;;;;;;;7.31;70.94;99963.25;5075619;28;20055;-67
2020/12/06 08:13:50;;;;;;;30.88;17.15;;;;;;;7.27;70.90;99952.03;5075101;28;20131;-68
2020/12/06 08:16:18;;;;;;;28.58;15.95;;;;;;;7.30;70.81;99956.31;5074990;28;20088;-67
2020/12/06 08:18:44;;;;;;;25.88;15.02;;;;;;;7.30;70.81;99956.31;5075049;28;20464;-67
2020/12/06 08:21:10;;;;;;;19.02;10.98;;;;;;;7.29;70.71;99949.41;5075494;28;20102;-67
2020/12/06 08:23:39;;;;;;;24.48;13.05;;;;;;;7.23;70.91;99950.41;5075553;28;20125;-68
2020/12/06 08:26:06;;;;;;;29.27;16.48;;;;;;;7.22;70.86;99959.13;5074999;28;20127;-67
2020/12/06 08:28:32;;;;;;;32.15;16.40;;;;;;;7.24;70.72;99953.88;5075143;28;20052;-69
2020/12/06 08:30:58;;;;;;;28.65;15.45;;;;;;;7.24;70.33;99961.69;5075214;28;20053;-67
2020/12/06 08:33:27;;;;;;;23.58;12.95;;;;;;;7.23;70.65;99965.19;5074558;28;20411;-68
2020/12/06 08:35:56;;;;;;;18.23;10.48;;;;;;;7.18;71.07;99967.94;5074982;28;20076;-68
2020/12/06 08:38:24;;;;;;;17.98;10.80;;;;;;;7.13;70.75;99997.66;5075091;28;20080;-68
2020/12/06 08:40:59;;;;;;;18.77;11.90;;;;;;;7.08;70.88;99953.47;5074858;28;20472;-67
2020/12/06 08:43:25;;;;;;;16.63;9.27;;;;;;;7.08;70.78;99965.63;5074696;28;20490;-67
2020/12/06 08:46:05;;;;;;;25.70;11.93;;;;;;;7.03;70.98;99948.38;5074875;28;20076;-69
2020/12/06 08:48:32;;;;;;;26.45;16.20;;;;;;;7.03;71.05;99952.75;5075033;28;20084;-68
2020/12/06 08:50:58;;;;;;;20.90;11.85;;;;;;;7.03;70.95;99963.16;5074578;28;20072;-67
2020/12/06 08:53:25;;;;;;;20.15;13.20;;;;;;;7.02;70.83;99951.88;5074288;28;20091;-69
2020/12/06 08:55:51;;;;;;;25.58;15.63;;;;;;;7.00;70.90;99960.66;5074642;28;20080;-68
2020/12/06 08:58:27;;;;;;;25.25;14.70;;;;;;;6.96;71.00;99944.25;5074859;28;20128;-68
2020/12/06 09:00:53;;;;;;;20.75;11.88;;;;;;;6.97;70.67;99943.34;5074704;28;20061;-68
2020/12/06 09:03:19;;;;;;;23.77;14.48;;;;;;;6.96;70.75;99949.47;5074638;28;20068;-68
2020/12/06 09:05:47;;;;;;;27.67;16.38;;;;;;;6.93;70.95;99946.94;5075265;28;20122;-68
2020/12/06 09:08:13;;;;;;;22.70;14.00;;;;;;;6.93;70.84;99939.13;5074413;28;20423;-67
2020/12/06 09:10:39;;;;;;;19.42;12.15;;;;;;;6.90;70.67;99939.22;5074329;28;20127;-68
2020/12/06 09:13:05;;;;;;;23.60;13.35;;;;;;;6.89;71.01;99947.94;5074234;28;20134;-69
2020/12/06 09:15:31;;;;;;;21.58;12.23;;;;;;;6.90;70.87;99940.97;5074128;28;20581;-67
2020/12/06 09:17:57;;;;;;;20.30;11.23;;;;;;;6.89;70.81;99941.88;5074584;28;20052;-68
2020/12/06 09:20:23;;;;;;;27.17;15.60;;;;;;;6.87;70.66;99938.44;5073990;28;20048;-68
2020/12/06 09:22:50;;;;;;;28.55;14.93;;;;;;;6.89;70.79;99936.66;5073629;28;20060;-67
2020/12/06 09:25:17;;;;;;;24.65;13.57;;;;;;;6.92;70.49;99937.41;5074266;28;20080;-68
2020/12/06 09:27:43;;;;;;;21.95;14.38;;;;;;;6.91;70.72;99922.69;5074278;28;20053;-67
2020/12/06 09:30:09;;;;;;;21.30;12.90;;;;;;;6.93;70.72;99935.66;5074003;28;20072;-67
2020/12/06 09:32:35;;;;;;;23.80;13.63;;;;;;;6.93;70.62;99925.25;5073720;28;20048;-67
2020/12/06 09:35:01;;;;;;;19.95;12.63;;;;;;;6.94;70.47;99935.63;5073906;28;20072;-67
2020/12/06 09:37:27;;;;;;;23.45;12.40;;;;;;;6.96;70.51;99920.78;5074185;28;20091;-68
2020/12/06 09:39:54;;;;;;;28.95;15.27;;;;;;;6.96;70.44;99920.78;5073999;28;20102;-68
2020/12/06 09:42:21;;;;;;;22.33;14.82;;;;;;;6.98;70.17;99926.81;5073838;28;20124;-68
2020/12/06 09:44:49;;;;;;;18.92;9.95;;;;;;;6.97;70.05;99929.47;5073824;28;20068;-68
2020/12/06 09:47:15;;;;;;;18.20;10.98;;;;;;;6.93;70.16;99920.88;5074195;28;20080;-68
2020/12/06 09:49:41;;;;;;;21.00;11.63;;;;;;;6.88;70.31;99938.41;5073593;28;20088;-67
2020/12/06 09:52:07;;;;;;;29.98;15.75;;;;;;;6.87;70.52;99925.41;5074025;28;20049;-68
2020/12/06 09:54:34;;;;;;;26.48;14.27;;;;;;;6.89;70.29;99927.09;5073045;28;20474;-69
2020/12/06 09:57:03;;;;;;;18.90;11.43;;;;;;;6.89;70.16;99926.25;5073420;28;20056;-67
2020/12/06 09:59:29;;;;;;;27.30;15.25;;;;;;;6.89;70.05;99915.81;5073469;28;20095;-67
2020/12/06 10:01:55;;;;;;;29.05;15.52;;;;;;;6.84;70.17;99915.91;5073700;28;20087;-66
2020/12/06 10:04:21;;;;;;;21.08;11.50;;;;;;;6.86;70.15;99928.91;5073459;28;20115;-66
2020/12/06 10:06:47;;;;;;;26.38;15.18;;;;;;;6.84;70.17;99921.13;5073325;28;20625;-67
2020/12/06 10:09:13;;;;;;;23.25;14.63;;;;;;;6.84;70.13;99921.13;5067730;28;20463;-68
2020/12/06 10:11:39;;;;;;;20.90;11.85;;;;;;;6.85;69.90;99917.63;5058869;28;20459;-67
2020/12/06 10:14:07;;;;;;;22.63;13.73;;;;;;;6.86;69.97;99928.91;5051131;28;20041;-69
2020/12/06 10:16:33;;;;;;;19.48;11.25;;;;;;;6.85;69.87;99929.81;5068905;28;20091;-68
2020/12/06 10:18:59;;;;;;;20.25;12.00;;;;;;;6.86;69.83;99932.38;5072152;28;20555;-68
2020/12/06 10:21:25;;;;;;;20.30;13.07;;;;;;;6.83;70.08;99935.06;5071238;28;20087;-68
2020/12/06 10:23:51;;;;;;;17.20;10.18;;;;;;;6.82;69.63;99920.31;5072322;28;20076;-68
2020/12/06 10:26:17;;;;;;;17.38;10.85;;;;;;;6.80;69.69;99929.94;5072914;28;20056;-68
2020/12/06 10:28:43;;;;;;;24.35;8.45;;;;;;;6.82;69.75;99917.72;5073213;28;20044;-68
2020/12/06 10:31:10;;;;;;;20.63;11.65;;;;;;;6.86;69.82;99914.13;5069442;28;20076;-68
2020/12/06 10:33:36;;;;;;;20.08;11.05;;;;;;;6.85;69.49;99917.63;5059570;28;20120;-68
2020/12/06 10:36:03;;;;;;;19.25;12.98;;;;;;;6.81;69.58;99922.97;5065038;28;20396;-67
2020/12/06 10:38:29;;;;;;;17.98;10.10;;;;;;;6.84;69.62;99905.50;5071634;28;20099;-69
2020/12/06 10:40:55;;;;;;;21.65;12.05;;;;;;;6.83;69.53;99911.59;5071687;28;20075;-68
2020/12/06 10:43:22;;;;;;;21.17;13.23;;;;;;;6.85;69.69;99909.81;5071985;28;20045;-69
2020/12/06 10:45:48;;;;;;;21.15;10.40;;;;;;;6.86;69.28;99906.31;5070931;28;20048;-67
2020/12/06 10:48:15;;;;;;;17.85;9.80;;;;;;;6.84;69.38;99910.72;5072059;28;20075;-68
2020/12/06 10:50:41;;;;;;;21.85;12.32;;;;;;;6.82;69.45;99917.72;5071148;28;20076;-67
2020/12/06 10:53:10;;;;;;;19.35;10.88;;;;;;;6.82;69.32;99907.28;5071588;28;20579;-68
2020/12/06 10:55:36;;;;;;;23.02;12.98;;;;;;;6.76;69.41;99912.69;5071379;28;20072;-69
2020/12/06 10:58:03;;;;;;;23.45;13.95;;;;;;;6.81;69.40;99909.94;5071038;28;20493;-70
2020/12/06 11:00:29;;;;;;;25.38;12.05;;;;;;;6.81;69.18;99908.19;5069691;28;20091;-70
2020/12/06 11:02:55;;;;;;;15.07;9.68;;;;;;;6.76;69.33;99915.28;5069782;28;20075;-70
2020/12/06 11:05:22;;;;;;;15.52;10.23;;;;;;;6.69;69.55;99900.75;5070856;28;20112;-69
2020/12/06 11:07:48;;;;;;;19.55;10.00;;;;;;;6.67;69.62;99897.34;5071133;28;20469;-69
2020/12/06 11:10:14;;;;;;;23.38;13.57;;;;;;;6.66;69.60;99896.47;5070960;28;20709;-69
2020/12/06 11:12:40;;;;;;;22.90;14.60;;;;;;;6.66;69.42;99893.00;5071342;28;20076;-70
2020/12/06 11:15:07;;;;;;;22.73;12.60;;;;;;;6.66;69.09;99893.88;5070747;28;20076;-70
2020/12/06 11:17:34;;;;;;;23.30;13.57;;;;;;;6.68;69.32;99888.63;5071048;28;20091;-71
2020/12/06 11:20:01;;;;;;;21.92;13.60;;;;;;;6.66;69.52;99885.16;5070772;28;20056;-70
2020/12/06 11:22:28;;;;;;;16.58;10.85;;;;;;;6.64;69.23;99882.63;5070923;28;20132;-69
2020/12/06 11:24:54;;;;;;;16.08;9.68;;;;;;;6.61;69.35;99887.06;5070609;28;20068;-70
2020/12/06 11:27:20;;;;;;;23.80;12.68;;;;;;;6.57;69.44;99882.84;5070943;28;20123;-69